Time;durP1;ratioP1;P1;durP2;ratioP2;P2;SDS_P1;SDS_P2;PMS_P1;PMS_P2;Temp;Humidity;BMP_temperature;BMP_pressure;BME280_temperature;BME280_humidity;BME280_pressure;Samples;Min_cycle;Max_cycle;Signal;HPM_P1;HPM_P2
2021/11/13 00:00:13;;;;;;;2.35;2.25;;;4.10;99.90;;;;;;5013541;28;20018;-73
2021/11/13 00:02:39;;;;;;;0.20;0.20;;;4.20;99.90;;;;;;5013587;28;20100;-73
2021/11/13 00:05:06;;;;;;;0.30;0.30;;;4.30;99.90;;;;;;5013465;28;20026;-74
2021/11/13 00:07:32;;;;;;;0.30;0.30;;;4.30;99.90;;;;;;5013666;28;20025;-73
2021/11/13 00:09:58;;;;;;;0.30;0.30;;;4.40;99.90;;;;;;5013454;28;20092;-74
2021/11/13 00:12:24;;;;;;;1.00;1.00;;;4.30;99.90;;;;;;5013485;28;20450;-74
2021/11/13 00:14:50;;;;;;;0.32;0.32;;;4.30;99.90;;;;;;5013121;28;20109;-73
2021/11/13 00:17:16;;;;;;;0.38;0.38;;;4.10;99.90;;;;;;5013297;28;20026;-73
2021/11/13 00:19:43;;;;;;;0.30;0.30;;;4.20;99.90;;;;;;5011945;28;20026;-74
2021/11/13 00:22:09;;;;;;;0.30;0.30;;;4.20;99.90;;;;;;5013238;28;20148;-73
2021/11/13 00:24:36;;;;;;;0.30;0.30;;;4.30;99.90;;;;;;5013149;28;20072;-73
2021/11/13 00:27:04;;;;;;;0.30;0.30;;;4.10;99.90;;;;;;5013219;28;20171;-74
2021/11/13 00:29:29;;;;;;;0.25;0.25;;;4.00;99.90;;;;;;5013028;28;20026;-73
2021/11/13 00:31:55;;;;;;;0.40;0.40;;;3.90;99.90;;;;;;5013057;28;20033;-73
2021/11/13 00:34:22;;;;;;;0.50;0.50;;;3.90;99.90;;;;;;5012964;28;20021;-73
2021/11/13 00:36:47;;;;;;;0.30;0.30;;;3.90;99.90;;;;;;5013056;28;20026;-74
2021/11/13 00:39:13;;;;;;;0.55;0.55;;;3.80;99.90;;;;;;5011837;28;20025;-74
2021/11/13 00:41:39;;;;;;;0.30;0.30;;;3.80;99.90;;;;;;5013031;28;20032;-74
2021/11/13 00:44:05;;;;;;;0.30;0.30;;;3.90;99.90;;;;;;5012854;28;20524;-74
2021/11/13 00:46:31;;;;;;;0.47;0.47;;;3.90;99.90;;;;;;5012684;28;20065;-74
2021/11/13 00:48:57;;;;;;;0.40;0.40;;;3.90;99.90;;;;;;5011536;28;20061;-74
2021/11/13 00:51:23;;;;;;;1.08;1.08;;;3.90;99.90;;;;;;5011646;28;20030;-73
2021/11/13 00:53:49;;;;;;;0.30;0.30;;;3.80;99.90;;;;;;5012642;28;20531;-74
2021/11/13 00:56:15;;;;;;;0.95;0.95;;;3.80;99.90;;;;;;5012625;28;20022;-74
2021/11/13 00:58:41;;;;;;;0.40;0.40;;;3.70;99.90;;;;;;5011400;28;20069;-74
2021/11/13 01:01:07;;;;;;;0.43;0.43;;;3.70;99.90;;;;;;5010929;28;20022;-74
2021/11/13 01:03:33;;;;;;;0.30;0.30;;;3.70;99.90;;;;;;5012591;28;20021;-74
2021/11/13 01:06:00;;;;;;;0.30;0.30;;;3.80;99.90;;;;;;5012435;28;20144;-74
2021/11/13 01:08:26;;;;;;;0.25;0.25;;;3.70;99.90;;;;;;5012560;28;20080;-73
2021/11/13 01:10:52;;;;;;;0.30;0.30;;;3.70;99.90;;;;;;5012442;28;20401;-74
2021/11/13 01:13:19;;;;;;;0.30;0.30;;;3.80;99.90;;;;;;5012481;28;20105;-74
2021/11/13 01:15:45;;;;;;;0.40;0.40;;;3.70;99.90;;;;;;5012199;28;20026;-74
2021/11/13 01:18:11;;;;;;;0.30;0.30;;;3.80;99.90;;;;;;5012412;28;20049;-74
2021/11/13 01:20:38;;;;;;;0.30;0.30;;;3.80;99.90;;;;;;5012416;28;20446;-73
2021/11/13 01:23:03;;;;;;;0.30;0.30;;;3.80;99.90;;;;;;5012448;28;20366;-74
2021/11/13 01:25:30;;;;;;;2.38;2.28;;;3.90;99.90;;;;;;5012091;28;20033;-74
2021/11/13 01:27:57;;;;;;;0.30;0.30;;;3.90;99.90;;;;;;5012232;28;20029;-73
2021/11/13 01:30:23;;;;;;;0.30;0.30;;;4.00;99.90;;;;;;5012155;28;20054;-73
2021/11/13 01:32:49;;;;;;;0.38;0.38;;;3.90;99.90;;;;;;5012200;28;20025;-73
2021/11/13 01:35:17;;;;;;;0.30;0.30;;;3.90;99.90;;;;;;5011977;28;20026;-73
2021/11/13 01:37:43;;;;;;;0.30;0.30;;;4.10;99.90;;;;;;5012183;28;20390;-74
2021/11/13 01:40:13;;;;;;;0.30;0.30;;;4.20;99.90;;;;;;5012351;28;20030;-74
2021/11/13 01:42:39;;;;;;;0.43;0.43;;;4.20;99.90;;;;;;5012284;28;20022;-74
2021/11/13 01:45:06;;;;;;;0.82;0.75;;;4.10;99.90;;;;;;5011854;28;20037;-73
2021/11/13 01:47:32;;;;;;;0.50;0.50;;;4.10;99.90;;;;;;5012149;28;20030;-74
2021/11/13 01:49:59;;;;;;;0.35;0.35;;;4.20;99.90;;;;;;5010753;28;20091;-74
2021/11/13 01:52:25;;;;;;;0.55;0.55;;;4.20;99.90;;;;;;5012076;28;20026;-74
2021/11/13 01:54:51;;;;;;;0.30;0.30;;;4.10;99.90;;;;;;5011725;28;20544;-74
2021/11/13 01:57:23;;;;;;;0.40;0.40;;;4.00;99.90;;;;;;5010694;28;20054;-74
2021/11/13 01:59:51;;;;;;;0.38;0.38;;;4.00;99.90;;;;;;5011940;28;20397;-73
2021/11/13 02:02:18;;;;;;;0.30;0.30;;;4.10;99.90;;;;;;4994330;28;20498;-73
2021/11/13 02:04:45;;;;;;;1.75;1.65;;;4.10;99.90;;;;;;5011752;28;20267;-75
2021/11/13 02:07:11;;;;;;;0.60;0.60;;;4.20;99.90;;;;;;5010503;28;20030;-74
2021/11/13 02:09:37;;;;;;;0.50;0.50;;;4.30;99.90;;;;;;5011833;28;20489;-74
2021/11/13 02:12:03;;;;;;;0.30;0.30;;;4.20;99.90;;;;;;5011837;28;20076;-74
2021/11/13 02:14:30;;;;;;;0.20;0.20;;;4.30;99.90;;;;;;5014509;28;20041;-74
2021/11/13 02:16:57;;;;;;;0.63;0.63;;;4.20;99.90;;;;;;5015632;28;20029;-73
2021/11/13 02:19:23;;;;;;;0.30;0.30;;;4.20;99.90;;;;;;5014343;28;20489;-74
2021/11/13 02:21:49;;;;;;;0.30;0.30;;;4.20;99.90;;;;;;5015500;28;20061;-74
2021/11/13 02:24:14;;;;;;;0.30;0.30;;;4.30;99.90;;;;;;5015496;28;20026;-74
2021/11/13 02:26:40;;;;;;;0.40;0.40;;;4.30;99.90;;;;;;5015661;28;20355;-74
2021/11/13 02:29:07;;;;;;;0.30;0.30;;;4.30;99.90;;;;;;5015356;28;20446;-74
2021/11/13 02:31:36;;;;;;;0.20;0.20;;;4.20;99.90;;;;;;5015516;28;20068;-74
2021/11/13 02:34:05;;;;;;;0.63;0.63;;;4.10;99.90;;;;;;5015306;28;20041;-74
2021/11/13 02:36:31;;;;;;;0.30;0.30;;;4.20;99.90;;;;;;5013897;28;20022;-74
2021/11/13 02:38:59;;;;;;;0.30;0.30;;;4.10;99.90;;;;;;5013938;28;20026;-74
2021/11/13 02:41:28;;;;;;;3.10;2.92;;;4.10;99.90;;;;;;5014113;28;20095;-74
2021/11/13 02:43:56;;;;;;;0.20;0.20;;;4.20;99.90;;;;;;5015148;28;20026;-74
2021/11/13 02:46:22;;;;;;;0.28;0.28;;;4.30;99.90;;;;;;5014953;28;20064;-74
2021/11/13 02:48:49;;;;;;;0.30;0.30;;;4.40;99.90;;;;;;5015093;28;20053;-74
2021/11/13 02:51:15;;;;;;;0.20;0.20;;;4.30;99.90;;;;;;5015252;28;20057;-74
2021/11/13 02:53:45;;;;;;;0.20;0.20;;;4.40;99.90;;;;;;5015054;28;20033;-74
2021/11/13 02:56:11;;;;;;;0.30;0.30;;;4.40;99.90;;;;;;5014809;28;20022;-74
2021/11/13 02:58:39;;;;;;;0.30;0.30;;;4.40;99.90;;;;;;5014921;28;20045;-74
2021/11/13 03:01:14;;;;;;;0.20;0.20;;;4.40;99.90;;;;;;5014843;28;20030;-74
2021/11/13 03:03:41;;;;;;;0.30;0.30;;;4.40;99.90;;;;;;5013603;28;20018;-74
2021/11/13 03:06:12;;;;;;;0.30;0.30;;;4.40;99.90;;;;;;5014703;28;20488;-73
2021/11/13 03:08:39;;;;;;;0.20;0.20;;;4.40;99.90;;;;;;5014745;28;20133;-74
2021/11/13 03:11:11;;;;;;;0.20;0.20;;;4.50;99.90;;;;;;5014619;28;20045;-74
2021/11/13 03:13:37;;;;;;;;;;;4.50;99.90;;;;;;5013727;28;20025;-73
2021/11/13 03:16:04;;;;;;;0.30;0.30;;;4.40;99.90;;;;;;5014247;28;19909;-74
2021/11/13 03:18:31;;;;;;;0.50;0.50;;;4.20;99.90;;;;;;5014828;28;20057;-73
2021/11/13 03:20:57;;;;;;;0.20;0.20;;;4.00;99.90;;;;;;5013087;28;20022;-74
2021/11/13 03:23:24;;;;;;;0.20;0.20;;;4.10;99.90;;;;;;5014409;28;20474;-74
2021/11/13 03:26:02;;;;;;;0.25;0.25;;;4.00;99.90;;;;;;5014136;28;20037;-74
2021/11/13 03:28:30;;;;;;;0.15;0.15;;;4.10;99.90;;;;;;5013003;28;20440;-74
2021/11/13 03:31:01;;;;;;;0.20;0.20;;;4.10;99.90;;;;;;5014207;28;20025;-74
2021/11/13 03:33:27;;;;;;;0.40;0.40;;;4.20;99.90;;;;;;5013064;28;20033;-73
2021/11/13 03:35:53;;;;;;;0.20;0.20;;;4.30;99.90;;;;;;5013934;28;20394;-74
2021/11/13 03:38:18;;;;;;;0.20;0.20;;;4.40;99.90;;;;;;5014138;28;20032;-74
2021/11/13 03:40:46;;;;;;;0.20;0.20;;;4.60;99.90;;;;;;5014070;28;20017;-74
2021/11/13 03:43:13;;;;;;;0.20;0.20;;;4.70;99.90;;;;;;5014054;28;20026;-74
2021/11/13 03:45:40;;;;;;;0.20;0.20;;;4.60;99.90;;;;;;5013891;28;20034;-74
2021/11/13 03:48:06;;;;;;;0.20;0.20;;;4.70;99.90;;;;;;5014013;28;20033;-74
2021/11/13 03:50:32;;;;;;;0.20;0.20;;;4.70;99.90;;;;;;5013882;28;20022;-74
2021/11/13 03:52:58;;;;;;;0.30;0.30;;;4.70;99.90;;;;;;5013921;28;20025;-73
2021/11/13 03:55:24;;;;;;;0.30;0.30;;;4.80;99.90;;;;;;5013818;28;20073;-74
2021/11/13 03:57:51;;;;;;;0.20;0.20;;;4.80;99.90;;;;;;5013680;28;20094;-73
2021/11/13 04:00:18;;;;;;;0.43;0.43;;;4.80;99.90;;;;;;5013677;28;20144;-74
2021/11/13 04:02:46;;;;;;;0.30;0.30;;;4.80;99.90;;;;;;5012462;28;20419;-74
2021/11/13 04:05:13;;;;;;;0.30;0.30;;;4.80;99.90;;;;;;5013536;28;20108;-74
2021/11/13 04:07:40;;;;;;;0.20;0.20;;;4.70;99.90;;;;;;5013571;28;20024;-74
2021/11/13 04:10:07;;;;;;;0.20;0.20;;;4.60;99.90;;;;;;4995812;28;20073;-73
2021/11/13 04:12:33;;;;;;;0.30;0.30;;;4.60;99.90;;;;;;5013510;28;20030;-73
2021/11/13 04:14:59;;;;;;;0.30;0.30;;;4.60;99.90;;;;;;5013330;28;20413;-73
2021/11/13 04:17:26;;;;;;;0.20;0.20;;;4.50;99.90;;;;;;5013397;28;20041;-74
2021/11/13 04:19:52;;;;;;;0.30;0.30;;;4.30;99.90;;;;;;5013339;28;20026;-74
2021/11/13 04:22:18;;;;;;;0.32;0.32;;;4.40;99.90;;;;;;5012176;28;20503;-73
2021/11/13 04:24:43;;;;;;;0.30;0.30;;;4.50;99.90;;;;;;5013124;28;20033;-74
2021/11/13 04:27:09;;;;;;;0.30;0.30;;;4.50;99.90;;;;;;5013286;28;20032;-74
2021/11/13 04:29:35;;;;;;;0.30;0.30;;;4.30;99.90;;;;;;5013252;28;20057;-74
2021/11/13 04:32:01;;;;;;;0.20;0.20;;;4.20;99.90;;;;;;5013478;28;20034;-75
2021/11/13 04:34:33;;;;;;;0.43;0.43;;;4.20;99.90;;;;;;5011674;28;20037;-74
2021/11/13 04:37:01;;;;;;;0.30;0.30;;;4.10;99.90;;;;;;5011924;28;20366;-74
2021/11/13 04:39:27;;;;;;;3.33;3.13;;;4.10;99.90;;;;;;5012776;28;20463;-74
2021/11/13 04:41:54;;;;;;;0.30;0.30;;;4.10;99.90;;;;;;5013028;28;20053;-74
2021/11/13 04:44:20;;;;;;;0.30;0.30;;;4.20;99.90;;;;;;5011631;28;20056;-74
2021/11/13 04:46:46;;;;;;;0.30;0.30;;;4.20;99.90;;;;;;5018336;22;20513;-75
2021/11/13 04:49:12;;;;;;;0.30;0.30;;;4.30;99.90;;;;;;4993180;28;20442;-75
2021/11/13 04:51:38;;;;;;;0.30;0.30;;;4.30;99.90;;;;;;4993274;28;20053;-76
2021/11/13 04:54:03;;;;;;;0.35;0.35;;;4.30;99.90;;;;;;4993071;28;20027;-76
2021/11/13 04:56:29;;;;;;;0.40;0.40;;;4.40;99.90;;;;;;4991530;28;20138;-75
2021/11/13 04:58:55;;;;;;;1.00;0.88;;;4.30;99.90;;;;;;4993033;28;20414;-76
2021/11/13 05:01:21;;;;;;;0.30;0.30;;;4.30;99.90;;;;;;4991667;28;20027;-75
2021/11/13 05:03:46;;;;;;;0.20;0.20;;;4.20;99.90;;;;;;4991655;28;20073;-75
2021/11/13 05:06:12;;;;;;;0.43;0.43;;;4.20;99.90;;;;;;4991448;28;20441;-76
2021/11/13 05:08:38;;;;;;;0.30;0.30;;;4.30;99.90;;;;;;4992865;28;20058;-76
2021/11/13 05:11:04;;;;;;;0.30;0.30;;;4.30;99.90;;;;;;4992690;28;20479;-76
2021/11/13 05:13:30;;;;;;;0.20;0.20;;;4.40;99.90;;;;;;4992906;28;20018;-75
2021/11/13 05:15:55;;;;;;;0.30;0.30;;;4.40;99.90;;;;;;4992632;28;20084;-76
2021/11/13 05:18:22;;;;;;;0.40;0.40;;;4.40;99.90;;;;;;4992670;28;20026;-75
2021/11/13 05:20:48;;;;;;;0.32;0.32;;;4.30;99.90;;;;;;4992633;28;20490;-76
2021/11/13 05:23:14;;;;;;;19.38;2.33;;;4.30;99.90;;;;;;4991428;28;20038;-75
2021/11/13 05:25:39;;;;;;;0.30;0.30;;;4.20;99.90;;;;;;4992319;28;20049;-78
2021/11/13 05:28:05;;;;;;;0.32;0.32;;;4.10;99.90;;;;;;4992617;28;20029;-75
2021/11/13 05:30:31;;;;;;;0.22;0.22;;;4.10;99.90;;;;;;4992600;28;20105;-75
2021/11/13 05:32:57;;;;;;;3.05;1.30;;;3.90;99.90;;;;;;4992572;28;20482;-75
2021/11/13 05:35:23;;;;;;;1.33;1.23;;;3.90;99.90;;;;;;4991008;28;20033;-76
2021/11/13 05:37:51;;;;;;;1.95;1.50;;;3.70;99.90;;;;;;4991180;28;20027;-75
2021/11/13 05:40:17;;;;;;;0.30;0.30;;;3.60;99.90;;;;;;4992191;28;20019;-76
2021/11/13 05:42:44;;;;;;;0.30;0.30;;;3.40;99.90;;;;;;4992485;28;20371;-77
2021/11/13 05:45:13;;;;;;;0.50;0.50;;;3.40;99.90;;;;;;4992344;28;20101;-75
2021/11/13 05:47:40;;;;;;;0.30;0.30;;;3.50;99.90;;;;;;4992386;28;20121;-76
2021/11/13 05:50:12;;;;;;;0.73;0.73;;;3.60;99.90;;;;;;4996328;28;20113;-75
2021/11/13 05:52:42;;;;;;;;;;;3.60;99.90;;;;;;4996852;28;20385;-75
2021/11/13 05:55:09;;;;;;;0.40;0.40;;;3.60;99.90;;;;;;5011478;28;19916;-75
2021/11/13 05:57:35;;;;;;;0.20;0.20;;;3.60;99.90;;;;;;4996359;28;20031;-75
2021/11/13 06:00:02;;;;;;;4.70;4.35;;;3.70;99.90;;;;;;4996173;28;20363;-76
2021/11/13 06:02:28;;;;;;;0.40;0.40;;;3.80;99.90;;;;;;4995008;28;20031;-75
2021/11/13 06:04:54;;;;;;;0.90;0.90;;;3.80;99.90;;;;;;4996085;28;20478;-75
2021/11/13 06:07:19;;;;;;;0.30;0.30;;;3.90;99.90;;;;;;4996043;28;20026;-76
2021/11/13 06:09:45;;;;;;;0.30;0.30;;;3.90;99.90;;;;;;4994864;28;20375;-76
2021/11/13 06:12:11;;;;;;;0.40;0.40;;;3.80;99.90;;;;;;4994910;28;20033;-75
2021/11/13 06:14:37;;;;;;;0.30;0.30;;;3.80;99.90;;;;;;4995897;28;20031;-75
2021/11/13 06:17:03;;;;;;;0.55;0.55;;;3.80;99.90;;;;;;4995955;28;20022;-74
2021/11/13 06:19:29;;;;;;;0.30;0.30;;;3.80;99.90;;;;;;4995799;28;20088;-74
2021/11/13 06:21:55;;;;;;;0.25;0.25;;;3.80;99.90;;;;;;4995713;28;20545;-74
2021/11/13 06:24:21;;;;;;;0.50;0.50;;;3.90;99.90;;;;;;4995799;28;20406;-75
2021/11/13 06:26:46;;;;;;;1.40;1.40;;;4.00;99.90;;;;;;4995667;28;20030;-75
2021/11/13 06:29:12;;;;;;;0.40;0.40;;;4.00;99.90;;;;;;4995721;28;20034;-75
2021/11/13 06:31:38;;;;;;;0.98;0.98;;;4.00;99.90;;;;;;4994555;28;20541;-75
2021/11/13 06:34:04;;;;;;;0.30;0.30;;;3.90;99.90;;;;;;4995607;28;20421;-74
2021/11/13 06:36:29;;;;;;;0.80;0.80;;;3.70;99.90;;;;;;4995328;28;20445;-74
2021/11/13 06:38:55;;;;;;;0.50;0.50;;;3.60;99.90;;;;;;4994274;28;20393;-74
2021/11/13 06:41:25;;;;;;;0.22;0.22;;;3.60;99.90;;;;;;4995514;28;20030;-74
2021/11/13 06:43:51;;;;;;;0.40;0.40;;;3.70;99.90;;;;;;4994454;28;20135;-74
2021/11/13 06:46:17;;;;;;;0.20;0.20;;;3.70;99.90;;;;;;4995200;28;20529;-75
2021/11/13 06:48:43;;;;;;;0.82;0.82;;;3.70;99.90;;;;;;4995421;28;20181;-75
2021/11/13 06:51:09;;;;;;;0.30;0.30;;;3.70;99.90;;;;;;4995730;28;20425;-75
2021/11/13 06:53:34;;;;;;;0.50;0.50;;;3.60;99.90;;;;;;4995326;28;20034;-75
2021/11/13 06:56:00;;;;;;;0.30;0.30;;;3.40;99.90;;;;;;4994995;28;20026;-77
2021/11/13 06:58:26;;;;;;;0.30;0.30;;;3.50;99.90;;;;;;4995283;28;20154;-75
2021/11/13 07:00:52;;;;;;;0.40;0.40;;;3.40;99.90;;;;;;4994624;28;20092;-75
2021/11/13 07:03:17;;;;;;;0.47;0.47;;;3.40;99.90;;;;;;5010286;28;20546;-75
2021/11/13 07:05:43;;;;;;;0.30;0.30;;;3.50;99.90;;;;;;4994955;28;20113;-74
2021/11/13 07:08:09;;;;;;;0.30;0.30;;;3.60;99.90;;;;;;4994887;28;20038;-75
2021/11/13 07:10:35;;;;;;;0.45;0.45;;;3.60;99.90;;;;;;4993631;28;20029;-74
2021/11/13 07:13:01;;;;;;;0.30;0.30;;;3.50;99.90;;;;;;4993606;28;20030;-74
2021/11/13 07:15:31;;;;;;;0.20;0.20;;;3.50;99.90;;;;;;4993472;28;20105;-74
2021/11/13 07:18:02;;;;;;;0.40;0.40;;;3.70;99.90;;;;;;4994846;28;20026;-75
2021/11/13 07:20:29;;;;;;;0.63;0.63;;;3.80;99.90;;;;;;4994801;28;20041;-74
2021/11/13 07:22:56;;;;;;;0.20;0.20;;;3.90;99.90;;;;;;4993412;28;20082;-76
2021/11/13 07:25:23;;;;;;;0.30;0.30;;;4.00;99.90;;;;;;4994516;28;20026;-75
2021/11/13 07:27:49;;;;;;;0.30;0.30;;;4.20;99.90;;;;;;4994552;28;20497;-74
2021/11/13 07:30:18;;;;;;;0.30;0.30;;;4.30;99.90;;;;;;4993315;28;20068;-75
2021/11/13 07:32:45;;;;;;;7.32;6.47;;;4.40;99.90;;;;;;4994706;28;20019;-74
2021/11/13 07:35:11;;;;;;;0.60;0.60;;;4.60;99.90;;;;;;4994332;28;20084;-75
2021/11/13 07:37:37;;;;;;;0.73;0.73;;;4.70;99.90;;;;;;4994338;28;20434;-74
2021/11/13 07:40:04;;;;;;;0.30;0.30;;;4.70;99.90;;;;;;4994378;28;20088;-74
2021/11/13 07:42:29;;;;;;;0.20;0.20;;;4.80;99.90;;;;;;4994430;28;20026;-75
2021/11/13 07:44:57;;;;;;;4.57;1.95;;;4.90;99.90;;;;;;4997980;28;20030;-76
2021/11/13 07:47:23;;;;;;;1.25;0.85;;;4.90;99.90;;;;;;4998125;28;20038;-74
2021/11/13 07:49:49;;;;;;;0.20;0.20;;;5.10;99.90;;;;;;5011839;28;20072;-75
2021/11/13 07:52:15;;;;;;;1.17;1.17;;;5.20;99.90;;;;;;4993879;28;20053;-74
2021/11/13 07:54:41;;;;;;;0.40;0.40;;;5.50;99.90;;;;;;5006039;28;20085;-74
2021/11/13 07:57:08;;;;;;;0.70;0.68;;;5.70;99.90;;;;;;5013628;28;20026;-74
2021/11/13 07:59:34;;;;;;;0.30;0.30;;;5.90;99.90;;;;;;5013384;28;20014;-75
2021/11/13 08:02:01;;;;;;;0.20;0.20;;;6.00;99.90;;;;;;5012188;28;20064;-74
2021/11/13 08:04:26;;;;;;;0.10;0.10;;;6.20;99.90;;;;;;5012135;28;20037;-75
2021/11/13 08:06:52;;;;;;;0.15;0.15;;;6.30;99.90;;;;;;5013456;28;20030;-75
2021/11/13 08:09:18;;;;;;;0.10;0.10;;;6.40;99.90;;;;;;5010025;28;20029;-77
2021/11/13 08:11:44;;;;;;;0.10;0.10;;;6.60;99.90;;;;;;5012674;28;20091;-74
2021/11/13 08:14:09;;;;;;;0.20;0.20;;;6.80;99.90;;;;;;5011913;28;20025;-75
2021/11/13 08:16:36;;;;;;;0.15;0.15;;;6.90;99.90;;;;;;5013089;28;20021;-74
2021/11/13 08:19:02;;;;;;;0.20;0.20;;;7.00;99.90;;;;;;5013072;28;20117;-75
2021/11/13 08:21:28;;;;;;;0.65;0.65;;;7.10;99.90;;;;;;5013172;28;20054;-75
2021/11/13 08:23:54;;;;;;;0.13;0.13;;;7.30;99.90;;;;;;5013059;28;20107;-76
2021/11/13 08:26:20;;;;;;;0.13;0.13;;;7.40;99.90;;;;;;5013010;28;20021;-76
2021/11/13 08:28:46;;;;;;;0.10;0.10;;;7.50;99.90;;;;;;5013049;28;20033;-76
2021/11/13 08:31:12;;;;;;;0.20;0.20;;;7.60;99.90;;;;;;5012809;28;20381;-75
2021/11/13 08:33:37;;;;;;;0.22;0.22;;;7.70;99.90;;;;;;5011772;28;20152;-76
2021/11/13 08:36:04;;;;;;;0.15;0.15;;;7.80;99.90;;;;;;5011655;28;20029;-75
2021/11/13 08:38:30;;;;;;;0.10;0.10;;;8.00;99.90;;;;;;5011827;28;20029;-75
2021/11/13 08:40:58;;;;;;;0.20;0.20;;;8.20;99.90;;;;;;5012966;28;20469;-76
2021/11/13 08:43:24;;;;;;;0.13;0.13;;;8.40;99.90;;;;;;5012753;28;20025;-73
2021/11/13 08:45:51;;;;;;;0.20;0.20;;;8.50;99.90;;;;;;5012259;28;20025;-73
2021/11/13 08:48:17;;;;;;;0.10;0.10;;;8.80;99.90;;;;;;5012674;28;20109;-74
2021/11/13 08:50:44;;;;;;;1.45;1.00;;;9.00;99.90;;;;;;5012414;28;20434;-74
2021/11/13 08:53:10;;;;;;;0.20;0.20;;;9.20;99.90;;;;;;5012653;28;20049;-74
2021/11/13 08:55:38;;;;;;;0.20;0.20;;;9.30;99.90;;;;;;5012341;28;20112;-76
2021/11/13 08:58:05;;;;;;;0.20;0.20;;;9.50;99.90;;;;;;5011471;28;20030;-75
2021/11/13 09:00:39;;;;;;;0.10;0.10;;;9.60;99.90;;;;;;4994854;28;20306;-76
2021/11/13 09:03:09;;;;;;;0.20;0.20;;;9.80;99.90;;;;;;5008155;28;20370;-76
2021/11/13 09:05:35;;;;;;;0.50;0.50;;;10.00;99.90;;;;;;4985940;28;20030;-76
2021/11/13 09:08:02;;;;;;;1.83;1.73;;;10.10;99.90;;;;;;4997930;28;20034;-76
2021/11/13 09:10:30;;;;;;;0.22;0.22;;;10.30;99.90;;;;;;4992767;28;20482;-76
2021/11/13 09:12:57;;;;;;;0.17;0.17;;;10.50;99.90;;;;;;5009502;28;20045;-75
2021/11/13 09:15:27;;;;;;;0.20;0.20;;;10.60;99.90;;;;;;5012299;28;20034;-76
2021/11/13 09:17:56;;;;;;;0.38;0.38;;;10.80;99.90;;;;;;5012179;28;20073;-76
2021/11/13 09:20:23;;;;;;;0.35;0.35;;;10.90;99.90;;;;;;5002946;28;20033;-76
2021/11/13 09:22:49;;;;;;;5.57;1.42;;;10.90;99.90;;;;;;4992543;28;20068;-75
2021/11/13 09:25:16;;;;;;;0.85;0.85;;;11.10;99.90;;;;;;4991279;28;20038;-76
2021/11/13 09:27:44;;;;;;;0.10;0.10;;;11.30;99.90;;;;;;4992563;28;20090;-76
2021/11/13 09:30:14;;;;;;;0.20;0.20;;;11.60;99.90;;;;;;4992548;28;20022;-76
2021/11/13 09:32:44;;;;;;;0.45;0.45;;;11.80;99.90;;;;;;4992369;28;20065;-76
2021/11/13 09:35:11;;;;;;;0.10;0.10;;;12.00;99.90;;;;;;4990760;28;20033;-76
2021/11/13 09:37:40;;;;;;;1.15;1.05;;;12.00;99.90;;;;;;5001505;28;20025;-76
2021/11/13 09:40:08;;;;;;;0.10;0.10;;;11.80;99.90;;;;;;5010194;28;20049;-77
2021/11/13 09:42:34;;;;;;;0.20;0.20;;;11.60;99.90;;;;;;5010150;28;20018;-76
2021/11/13 09:44:59;;;;;;;0.30;0.30;;;11.50;99.90;;;;;;5011031;28;20025;-75
2021/11/13 09:47:27;;;;;;;0.20;0.20;;;11.30;99.90;;;;;;5010770;28;20049;-76
2021/11/13 09:49:54;;;;;;;0.13;0.13;;;11.20;99.90;;;;;;5010681;28;20026;-76
2021/11/13 09:52:20;;;;;;;0.20;0.20;;;11.00;99.90;;;;;;5012011;28;20034;-76
2021/11/13 09:54:46;;;;;;;0.17;0.17;;;10.90;99.90;;;;;;4994145;28;20041;-77
2021/11/13 09:57:12;;;;;;;0.90;0.63;;;10.90;99.90;;;;;;5010593;28;20438;-75
2021/11/13 09:59:38;;;;;;;0.20;0.20;;;10.60;99.90;;;;;;5011754;28;20306;-77
2021/11/13 10:02:04;;;;;;;0.20;0.20;;;10.40;99.90;;;;;;5010599;28;20029;-79
2021/11/13 10:04:31;;;;;;;0.25;0.25;;;10.30;99.90;;;;;;5011672;28;20466;-77
2021/11/13 10:06:56;;;;;;;0.28;0.28;;;10.20;99.90;;;;;;5011850;28;20577;-77
2021/11/13 10:09:23;;;;;;;0.15;0.15;;;10.20;99.90;;;;;;5010414;28;20360;-77
2021/11/13 10:11:51;;;;;;;0.38;0.38;;;10.10;99.90;;;;;;5010553;28;20519;-76
2021/11/13 10:14:36;;;;;;;0.20;0.20;;;10.20;99.90;;;;;;5011769;28;20033;-78
2021/11/13 10:17:15;;;;;;;5.40;2.47;;;10.10;99.90;;;;;;5012332;28;20022;-80
2021/11/13 10:19:41;;;;;;;0.20;0.20;;;10.00;99.90;;;;;;5010756;28;20033;-77
2021/11/13 10:22:06;;;;;;;0.20;0.20;;;9.90;99.90;;;;;;5011899;28;20022;-75
2021/11/13 10:24:32;;;;;;;0.30;0.30;;;9.80;99.90;;;;;;5011336;28;20026;-75
2021/11/13 10:27:04;;;;;;;0.40;0.40;;;9.70;99.90;;;;;;5011695;28;20061;-75
2021/11/13 10:29:32;;;;;;;0.20;0.20;;;9.70;99.90;;;;;;5010272;28;20030;-75
2021/11/13 10:32:04;;;;;;;0.10;0.10;;;9.80;99.90;;;;;;5011602;28;20026;-76
2021/11/13 10:34:36;;;;;;;0.20;0.20;;;9.80;99.90;;;;;;5012619;28;20385;-76
2021/11/13 10:37:24;;;;;;;0.20;0.20;;;9.80;99.90;;;;;;5015771;28;20101;-76
2021/11/13 10:39:56;;;;;;;1.08;1.08;;;9.80;99.90;;;;;;5014565;28;20470;-77
2021/11/13 10:42:23;;;;;;;1.75;1.15;;;9.60;99.90;;;;;;5014304;28;20540;-77
2021/11/13 10:44:55;;;;;;;0.20;0.20;;;9.50;99.90;;;;;;5015515;28;20392;-77
2021/11/13 10:47:32;;;;;;;0.20;0.20;;;9.40;99.90;;;;;;5053703;23;20035;-94
2021/11/13 10:50:25;;;;;;;0.17;0.17;;;9.50;99.90;;;;;;4988112;28;20038;-93
2021/11/13 10:53:13;;;;;;;0.40;0.40;;;9.60;99.90;;;;;;4986008;28;20050;-93
2021/11/13 10:55:45;;;;;;;0.20;0.20;;;9.60;99.90;;;;;;4986794;28;20026;-92
2021/11/13 10:58:32;;;;;;;0.20;0.20;;;9.60;99.90;;;;;;4987129;28;20022;-93
2021/11/13 11:01:03;;;;;;;0.20;0.20;;;9.70;99.90;;;;;;4986628;28;20042;-93
2021/11/13 11:03:33;;;;;;;0.13;0.13;;;9.80;99.90;;;;;;4988056;28;20164;-93
2021/11/13 11:05:59;;;;;;;0.10;0.10;;;9.80;99.90;;;;;;5028402;22;20177;-74
2021/11/13 11:08:26;;;;;;;0.50;0.50;;;9.70;99.90;;;;;;4993348;28;20069;-73
2021/11/13 11:10:52;;;;;;;0.90;0.90;;;9.60;99.90;;;;;;4993787;28;20077;-74
2021/11/13 11:13:42;;;;;;;2.65;2.55;;;9.60;99.90;;;;;;4994791;28;20437;-73
2021/11/13 11:16:32;;;;;;;0.20;0.20;;;9.50;99.90;;;;;;4993375;28;20034;-74
2021/11/13 11:19:07;;;;;;;0.20;0.20;;;9.60;99.90;;;;;;4977300;28;20073;-73
2021/11/13 11:21:46;;;;;;;0.60;0.60;;;9.60;99.90;;;;;;4983157;28;20367;-73
2021/11/13 11:24:30;;;;;;;0.20;0.20;;;9.60;99.90;;;;;;5013081;28;20444;-73
2021/11/13 11:26:58;;;;;;;1.10;1.10;;;9.70;99.90;;;;;;5013142;28;20014;-74
2021/11/13 11:29:27;;;;;;;0.10;0.10;;;9.70;99.90;;;;;;5012838;28;20370;-74
2021/11/13 11:31:56;;;;;;;0.50;0.50;;;9.70;99.90;;;;;;5012818;28;20543;-73
2021/11/13 11:34:33;;;;;;;0.20;0.20;;;9.70;99.90;;;;;;4977834;28;20080;-74
2021/11/13 11:37:13;;;;;;;0.10;0.10;;;9.80;99.90;;;;;;4978191;28;20026;-73
2021/11/13 11:39:41;;;;;;;0.20;0.20;;;9.70;99.90;;;;;;5006449;28;20018;-73
2021/11/13 11:42:08;;;;;;;0.20;0.20;;;9.80;99.90;;;;;;4994362;28;20425;-74
2021/11/13 11:44:35;;;;;;;0.57;0.57;;;9.70;99.90;;;;;;4992872;28;20394;-74
2021/11/13 11:47:01;;;;;;;1.55;1.38;;;9.70;99.90;;;;;;4994201;28;20034;-73
2021/11/13 11:49:30;;;;;;;0.20;0.20;;;9.70;99.90;;;;;;4993031;28;20030;-74
2021/11/13 11:51:55;;;;;;;0.45;0.45;;;9.80;99.90;;;;;;4992973;28;20026;-73
2021/11/13 11:54:21;;;;;;;0.20;0.20;;;9.90;99.90;;;;;;4994061;28;20096;-73
2021/11/13 11:56:47;;;;;;;3.35;1.05;;;10.10;99.90;;;;;;4993946;28;20033;-74
2021/11/13 11:59:13;;;;;;;0.25;0.25;;;10.30;99.90;;;;;;4992992;28;20535;-74
2021/11/13 12:01:42;;;;;;;0.30;0.30;;;10.30;99.90;;;;;;4995488;28;20014;-76
2021/11/13 12:04:24;;;;;;;0.20;0.20;;;10.20;99.90;;;;;;4994070;28;20474;-76
2021/11/13 12:06:54;;;;;;;;;;;10.40;99.90;;;;;;4993024;28;20062;-75
2021/11/13 12:09:22;;;;;;;0.17;0.17;;;10.50;99.90;;;;;;4992611;28;19905;-75
2021/11/13 12:12:08;;;;;;;0.20;0.20;;;10.60;99.90;;;;;;4992647;28;20031;-75
2021/11/13 12:14:37;;;;;;;6.55;2.20;;;10.60;99.90;;;;;;4992289;28;20042;-75
2021/11/13 12:17:22;;;;;;;0.40;0.40;;;10.40;99.90;;;;;;4993786;28;20077;-75
2021/11/13 12:20:19;;;;;;;0.38;0.38;;;10.40;99.90;;;;;;4992281;28;20559;-76
2021/11/13 12:22:49;;;;;;;11.38;5.97;;;10.40;99.90;;;;;;4992470;28;20397;-75
2021/11/13 12:25:21;;;;;;;0.15;0.15;;;10.50;99.90;;;;;;4993513;28;20033;-75
2021/11/13 12:28:06;;;;;;;0.20;0.20;;;10.20;99.90;;;;;;4993461;28;20026;-75
2021/11/13 12:31:03;;;;;;;0.15;0.15;;;10.30;99.90;;;;;;4992169;28;20121;-75
2021/11/13 12:33:29;;;;;;;0.20;0.20;;;10.30;99.90;;;;;;4941982;28;20034;-75
2021/11/13 12:35:59;;;;;;;0.15;0.15;;;10.40;99.90;;;;;;4991848;28;20030;-75
2021/11/13 12:38:31;;;;;;;0.15;0.15;;;10.50;99.90;;;;;;4993447;28;20098;-75
2021/11/13 12:41:16;;;;;;;0.20;0.20;;;10.60;99.90;;;;;;4991807;28;20025;-75
2021/11/13 12:43:58;;;;;;;0.20;0.20;;;10.70;99.90;;;;;;4990246;28;20030;-75
2021/11/13 12:46:25;;;;;;;1.98;1.88;;;10.70;99.90;;;;;;4993238;28;20148;-75
2021/11/13 12:49:12;;;;;;;0.17;0.17;;;10.50;99.90;;;;;;4976413;28;20026;-75
2021/11/13 12:51:58;;;;;;;7.28;2.38;;;10.50;99.90;;;;;;4978510;28;20446;-75
2021/11/13 12:54:30;;;;;;;0.20;0.20;;;10.30;99.90;;;;;;4991254;28;20023;-75
2021/11/13 12:56:57;;;;;;;;;;;10.20;99.90;;;;;;4992590;28;20045;-75
2021/11/13 12:59:26;;;;;;;0.40;0.40;;;10.10;99.90;;;;;;4992223;28;19951;-75